K2WX

Buffalo Airport

Buffalo, South Dakota, USA
METAR K2WX 130956Z AUTO 29017KT M02/M06 A3000 RMK AO1 SLP186 T10221056
Observed Flight Rules
Dec-13 @ 09:56 UTC (54 minutes ago)
Wind
290° at 17 knots
Temperatures Readings
Current -2°C / 28°F
Dewpoint -6°C / 21°F
Humidity 74%
Altimeter 30" Hg
Pressure 1018.6 hPa
Elevation 915
METAR K2WX 130956Z AUTO 29017KT M02/M06 A3000 RMK AO1 SLP186 T10221056
Observed Flight Rules
Dec-13 @ 09:56 UTC
(54 minutes ago)
Wind
290° at 17 knots
Temperature Dewpoint
-2°C / 28°F -6°C / 21°F
Humidity Altimeter Pressure
74% 30" Hg 1018.6 hPa